METAR

METAR

SAPL62 EPRA 281200
METAR EPRA 281200Z 14010KT CAVOK 29/19 Q1004=

TAF

TAF

FCPL62 EPRA 281100
TAF EPRA 281130Z 2812/2821 12008KT CAVOK
PROB30 TEMPO 2814/2821 VRB15G30KT 4000 SHRA TSRA BKN033CB=

Witamy na stronie Radom Meteo

zawsze aktualna prognoza dla pilotów 

W zakresie osłony meteorologicznej realizujemy:

  • wykonywanie pomiarów i obserwacji meteorologicznych;
  • przygotowane prognoz meteorologicznych;
  • opracowywanie ostrzeżeń meteorologicznych;
  • informowanie o warunkach meteorologicznych;
  • dystrybucję informacji meteorologicznych;
  • opracowywanie danych klimatycznych.